createdAt,value
2019-01-10T00:00:47.631Z,96293.05
2019-01-10T00:03:48.634Z,96296.23
2019-01-10T00:06:48.332Z,96304.09
2019-01-10T00:09:41.231Z,96306.07
2019-01-10T00:16:00.135Z,96309.61
2019-01-10T00:18:55.032Z,96306.91
2019-01-10T00:21:48.735Z,96302.48
2019-01-10T00:24:36.008Z,96293.88
2019-01-10T00:27:42.531Z,96295.97
2019-01-10T00:30:42.831Z,96299.30
2019-01-10T00:33:57.049Z,96298.45
2019-01-10T00:37:02.234Z,96293.54
2019-01-10T00:40:12.131Z,96293.20
2019-01-10T00:43:14.633Z,96285.59
2019-01-10T00:46:08.435Z,96289.02
2019-01-10T00:52:15.254Z,96293.45
2019-01-10T00:54:47.341Z,96290.17
2019-01-10T01:01:04.534Z,96290.73
2019-01-10T01:04:05.131Z,96294.53
2019-01-10T01:07:05.534Z,96306.23
2019-01-10T01:10:09.932Z,96302.66
2019-01-10T01:13:01.107Z,96308.57
2019-01-10T01:16:00.633Z,96302.16
2019-01-10T01:19:31.332Z,96305.30
2019-01-10T01:22:22.034Z,96309.48
2019-01-10T01:25:35.634Z,96308.19
2019-01-10T01:28:41.135Z,96301.78
2019-01-10T01:31:57.838Z,96305.52
2019-01-10T01:38:32.836Z,96308.95
2019-01-10T01:45:01.435Z,96321.16
2019-01-10T01:51:37.234Z,96317.63
2019-01-10T01:54:53.136Z,96324.47
2019-01-10T01:57:57.536Z,96326.35
2019-01-10T02:00:38.782Z,96322.25
2019-01-10T02:16:36.534Z,96313.72
2019-01-10T02:19:36.638Z,96312.61
2019-01-10T02:22:47.938Z,96317.88
2019-01-10T02:26:04.934Z,96320.37
2019-01-10T02:29:21.539Z,96319.13
2019-01-10T02:32:39.438Z,96323.03
2019-01-10T02:35:39.338Z,96328.98
2019-01-10T02:42:05.141Z,96326.17
2019-01-10T02:45:24.429Z,96334.13
2019-01-10T02:48:27.837Z,96332.74
2019-01-10T02:54:22.660Z,96327.27
2019-01-10T02:57:10.742Z,96319.47
2019-01-10T03:00:12.534Z,96326.41
2019-01-10T03:03:24.936Z,96314.28
2019-01-10T03:09:23.200Z,96320.69
2019-01-10T03:12:38.437Z,96319.83
2019-01-10T03:15:47.636Z,96328.49
2019-01-10T03:18:50.242Z,96321.63
2019-01-10T03:22:02.141Z,96327.31
2019-01-10T03:25:13.236Z,96330.67
2019-01-10T03:31:32.439Z,96331.74
2019-01-10T03:34:26.884Z,96326.79
2019-01-10T03:37:19.036Z,96328.94
2019-01-10T03:40:28.836Z,96332.27
2019-01-10T03:43:30.538Z,96337.95
2019-01-10T03:46:40.007Z,96329.83
2019-01-10T03:49:43.638Z,96327.85
2019-01-10T03:52:41.938Z,96337.02
2019-01-10T03:55:40.567Z,96337.45
2019-01-10T03:58:45.442Z,96336.83
2019-01-10T04:04:50.341Z,96341.30
2019-01-10T04:07:47.143Z,96336.45
2019-01-10T04:10:59.138Z,96334.50
2019-01-10T04:14:17.440Z,96334.30
2019-01-10T04:17:24.738Z,96345.28
2019-01-10T04:20:30.945Z,96353.53
2019-01-10T04:23:29.946Z,96352.61
2019-01-10T04:30:03.939Z,96360.97
2019-01-10T04:36:22.540Z,96370.32
2019-01-10T04:42:55.442Z,96375.81
2019-01-10T04:45:55.440Z,96375.42
2019-01-10T04:49:14.141Z,96380.30
2019-01-10T04:52:23.351Z,96383.86
2019-01-10T04:55:25.847Z,96377.95
2019-01-10T04:58:20.642Z,96381.33
2019-01-10T05:04:19.941Z,96381.21
2019-01-10T05:07:54.039Z,96387.60
2019-01-10T05:10:22.847Z,96389.34
2019-01-10T05:16:36.246Z,96402.86
2019-01-10T05:22:56.940Z,96405.00
2019-01-10T05:25:57.942Z,96412.13
2019-01-10T05:29:08.642Z,96411.41
2019-01-10T05:32:10.745Z,96426.16
2019-01-10T05:38:15.341Z,96426.37
2019-01-10T05:40:55.784Z,96436.45
2019-01-10T05:43:46.946Z,96436.74
2019-01-10T05:46:33.083Z,96445.38
2019-01-10T05:52:35.496Z,96445.59
2019-01-10T05:55:32.745Z,96449.47
2019-01-10T05:58:34.242Z,96447.55
2019-01-10T06:01:45.147Z,96454.24
2019-01-10T06:04:38.042Z,96453.86
2019-01-10T06:07:34.647Z,96459.95
2019-01-10T06:13:58.543Z,96460.66
2019-01-10T06:16:53.249Z,96465.04
2019-01-10T06:23:00.045Z,96469.09
2019-01-10T06:25:56.346Z,96470.29
2019-01-10T06:28:57.945Z,96473.34
2019-01-10T06:31:50.843Z,96479.14
2019-01-10T06:34:29.514Z,96492.80
2019-01-10T06:37:32.943Z,96500.45
2019-01-10T06:40:53.346Z,96498.92
2019-01-10T06:43:58.847Z,96506.66
2019-01-10T06:46:54.045Z,96514.91
2019-01-10T06:49:28.637Z,96510.94
2019-01-10T06:52:42.441Z,96514.99
2019-01-10T06:55:38.349Z,96515.92
2019-01-10T06:58:26.148Z,96525.09
2019-01-10T07:01:15.236Z,96525.37
2019-01-10T07:04:23.451Z,96532.30
2019-01-10T07:07:28.445Z,96537.61
2019-01-10T07:10:48.446Z,96543.25
2019-01-10T07:20:01.265Z,96554.23
2019-01-10T07:22:59.349Z,96558.83
2019-01-10T07:26:06.846Z,96573.20
2019-01-10T07:29:11.060Z,96573.47
2019-01-10T07:32:18.444Z,96579.15
2019-01-10T07:35:25.739Z,96582.06
2019-01-10T07:38:22.349Z,96585.91
2019-01-10T07:41:26.748Z,96581.75
2019-01-10T07:44:35.350Z,96585.86
2019-01-10T07:47:28.749Z,96587.42
2019-01-10T07:50:33.949Z,96583.19
2019-01-10T07:53:49.645Z,96589.62
2019-01-10T07:57:06.048Z,96591.16
2019-01-10T08:00:12.646Z,96597.00
2019-01-10T08:03:23.344Z,96609.79
2019-01-10T08:06:11.249Z,96607.97
2019-01-10T08:09:13.649Z,96608.53
2019-01-10T08:12:19.048Z,96612.92
2019-01-10T08:15:23.449Z,96612.81
2019-01-10T08:18:35.261Z,96614.30
2019-01-10T08:21:22.446Z,96614.54
2019-01-10T08:24:02.319Z,96620.81
2019-01-10T08:27:04.039Z,96631.67
2019-01-10T08:33:22.546Z,96628.09
2019-01-10T08:36:15.946Z,96629.64
2019-01-10T08:39:14.331Z,96630.27
2019-01-10T08:42:08.751Z,96630.68
2019-01-10T08:44:49.612Z,96630.63
2019-01-10T08:47:26.517Z,96626.55
2019-01-10T08:49:56.911Z,96632.31
2019-01-10T08:55:52.150Z,96637.77
2019-01-10T09:01:36.884Z,96648.25
2019-01-10T09:04:24.487Z,96645.84
2019-01-10T09:07:23.553Z,96638.90
2019-01-10T09:10:10.249Z,96649.96
2019-01-10T09:13:10.384Z,96652.39
2019-01-10T09:15:58.493Z,96645.57
2019-01-10T09:18:55.052Z,96666.64
2019-01-10T09:21:34.870Z,96653.16
2019-01-10T09:24:27.859Z,96666.25
2019-01-10T09:27:17.464Z,96672.28
2019-01-10T09:30:09.352Z,96671.96
2019-01-10T09:33:18.249Z,96663.60
2019-01-10T09:36:24.002Z,96670.25
2019-01-10T09:39:28.151Z,96673.02
2019-01-10T09:42:18.414Z,96679.55
2019-01-10T09:45:28.151Z,96675.64
2019-01-10T09:48:22.051Z,96669.30
2019-01-10T09:51:10.849Z,96671.73
2019-01-10T09:54:04.524Z,96676.66
2019-01-10T09:56:38.070Z,96660.32
2019-01-10T09:59:25.560Z,96671.59
2019-01-10T10:02:09.184Z,96673.28
2019-01-10T10:05:12.064Z,96663.02
2019-01-10T10:08:02.851Z,96674.20
2019-01-10T10:11:00.952Z,96672.66
2019-01-10T10:13:51.355Z,96671.15
2019-01-10T10:16:37.956Z,96665.36
2019-01-10T10:19:20.654Z,96680.77
2019-01-10T10:22:04.354Z,96662.44
2019-01-10T10:24:54.029Z,96676.14
2019-01-10T10:30:50.132Z,96679.86
2019-01-10T10:33:45.151Z,96688.81
2019-01-10T10:39:59.653Z,96678.98
2019-01-10T10:42:50.962Z,96683.63
2019-01-10T10:45:41.156Z,96673.02
2019-01-10T10:48:20.454Z,96676.19
2019-01-10T10:54:27.850Z,96683.87
2019-01-10T10:57:16.040Z,96685.67
2019-01-10T11:00:13.050Z,96680.33
2019-01-10T11:03:13.160Z,96673.28
2019-01-10T11:06:20.661Z,96669.41
2019-01-10T11:08:54.975Z,96665.84
2019-01-10T11:11:38.957Z,96669.84
2019-01-10T11:14:37.953Z,96664.98
2019-01-10T11:17:20.153Z,96664.31
2019-01-10T11:20:37.055Z,96665.42
2019-01-10T11:23:32.051Z,96667.55
2019-01-10T11:26:19.150Z,96668.52
2019-01-10T11:29:20.757Z,96668.76
2019-01-10T11:32:30.854Z,96661.52
2019-01-10T11:35:23.675Z,96661.70
2019-01-10T11:37:57.822Z,96665.42
2019-01-10T11:40:56.057Z,96662.37
2019-01-10T11:43:52.954Z,96654.45
2019-01-10T11:46:44.041Z,96663.88
2019-01-10T11:49:34.972Z,96660.91
2019-01-10T11:52:26.554Z,96644.64
2019-01-10T11:55:30.054Z,96657.98
2019-01-10T11:58:21.553Z,96650.70
2019-01-10T12:01:10.933Z,96655.83
2019-01-10T12:04:03.356Z,96661.83
2019-01-10T12:06:36.170Z,96663.67
2019-01-10T12:09:28.856Z,96653.52
2019-01-10T12:12:23.654Z,96648.94
2019-01-10T12:15:15.057Z,96647.27
2019-01-10T12:17:48.052Z,96654.77
2019-01-10T12:20:47.388Z,96657.45
2019-01-10T12:23:35.974Z,96642.64
2019-01-10T12:29:24.459Z,96658.00
2019-01-10T12:32:16.262Z,96648.83
2019-01-10T12:35:00.569Z,96641.13
2019-01-10T12:38:00.458Z,96645.08
2019-01-10T12:43:36.480Z,96647.42
2019-01-10T12:46:20.341Z,96639.57
2019-01-10T12:48:59.795Z,96637.08
2019-01-10T12:51:34.180Z,96651.78
2019-01-10T12:54:14.895Z,96655.63
2019-01-10T12:57:06.364Z,96648.56
2019-01-10T13:00:08.862Z,96667.27
2019-01-10T13:03:01.317Z,96653.84
2019-01-10T13:05:56.249Z,96667.92
2019-01-10T13:08:46.358Z,96668.36
2019-01-10T13:11:46.257Z,96664.03
2019-01-10T13:17:41.556Z,96665.86
2019-01-10T13:20:45.657Z,96682.58
2019-01-10T13:23:31.259Z,96693.84
2019-01-10T13:26:27.863Z,96698.36
2019-01-10T13:29:32.856Z,96705.31
2019-01-10T13:38:10.771Z,96714.73
2019-01-10T13:41:05.465Z,96720.56
2019-01-10T13:43:38.648Z,96724.41
2019-01-10T13:46:35.157Z,96719.17
2019-01-10T13:49:10.093Z,96725.56
2019-01-10T13:51:50.357Z,96718.04
2019-01-10T13:54:39.680Z,96710.07
2019-01-10T14:00:48.656Z,96738.99
2019-01-10T14:03:39.464Z,96751.24
2019-01-10T14:06:36.460Z,96749.43
2019-01-10T14:09:29.851Z,96751.41
2019-01-10T14:12:05.059Z,96761.69
2019-01-10T14:14:45.890Z,96755.25
2019-01-10T14:17:29.765Z,96758.33
2019-01-10T14:20:28.170Z,96756.47
2019-01-10T14:23:38.270Z,96744.11
2019-01-10T14:33:16.152Z,96770.92
2019-01-10T14:36:03.161Z,96773.66
2019-01-10T14:39:03.162Z,96779.19
2019-01-10T14:41:56.667Z,96772.60
2019-01-10T14:44:27.148Z,96782.53
2019-01-10T14:47:25.161Z,96786.23
2019-01-10T14:50:35.567Z,96781.04
2019-01-10T14:53:11.348Z,96781.00
2019-01-10T14:56:03.631Z,96783.16
2019-01-10T14:59:11.065Z,96799.02
2019-01-10T15:01:48.889Z,96791.28
2019-01-10T15:04:49.263Z,96797.20
2019-01-10T15:07:40.150Z,96792.69
2019-01-10T15:10:32.559Z,96805.38
2019-01-10T15:13:32.523Z,96814.84
2019-01-10T15:16:10.566Z,96823.23
2019-01-10T15:21:47.862Z,96828.88
2019-01-10T15:24:46.564Z,96829.55
2019-01-10T15:27:42.265Z,96824.90
2019-01-10T15:33:07.674Z,96826.10
2019-01-10T15:39:04.872Z,96837.23
2019-01-10T15:42:06.845Z,96846.31
2019-01-10T15:48:02.340Z,96850.23
2019-01-10T15:50:34.248Z,96855.02
2019-01-10T15:53:05.738Z,96860.63
2019-01-10T15:55:51.011Z,96864.43
2019-01-10T15:58:38.833Z,96862.78
2019-01-10T16:01:09.400Z,96878.78
2019-01-10T16:03:43.942Z,96879.31
2019-01-10T16:06:15.076Z,96881.98
2019-01-10T16:09:03.074Z,96885.07
2019-01-10T16:11:40.039Z,96875.58
2019-01-10T16:14:18.154Z,96883.97
2019-01-10T16:16:54.886Z,96886.03
2019-01-10T16:19:47.366Z,96886.75
2019-01-10T16:22:19.288Z,96890.56
2019-01-10T16:25:04.821Z,96891.90
2019-01-10T16:27:37.206Z,96899.61
2019-01-10T16:30:34.378Z,96904.84
2019-01-10T16:33:12.238Z,96893.73
2019-01-10T16:35:57.680Z,96899.52
2019-01-10T16:38:40.947Z,96902.08
2019-01-10T16:41:24.859Z,96902.81
2019-01-10T16:44:25.164Z,96909.56
2019-01-10T16:47:04.631Z,96903.16
2019-01-10T16:49:45.836Z,96912.48
2019-01-10T16:52:23.752Z,96915.97
2019-01-10T16:55:00.353Z,96928.95
2019-01-10T16:57:40.159Z,96937.06
2019-01-10T17:00:32.174Z,96932.11
2019-01-10T17:03:05.772Z,96939.33
2019-01-10T17:05:41.837Z,96951.63
2019-01-10T17:08:25.526Z,96959.83
2019-01-10T17:10:59.394Z,96949.36
2019-01-10T17:13:35.696Z,96965.16
2019-01-10T17:16:16.070Z,96972.66
2019-01-10T17:18:58.525Z,96978.99
2019-01-10T17:21:35.290Z,96976.66
2019-01-10T17:24:10.435Z,96977.00
2019-01-10T17:26:51.202Z,96992.63
2019-01-10T17:29:32.242Z,96994.16
2019-01-10T17:32:03.284Z,96990.43
2019-01-10T17:34:57.445Z,96984.97
2019-01-10T17:37:38.182Z,96992.47
2019-01-10T17:40:25.514Z,96999.63
2019-01-10T17:43:08.650Z,97002.00
2019-01-10T17:45:40.229Z,97012.27
2019-01-10T17:48:31.783Z,97010.75
2019-01-10T17:51:09.612Z,97005.93
2019-01-10T17:53:56.518Z,97014.03
2019-01-10T17:56:46.903Z,97023.88
2019-01-10T17:59:38.556Z,97016.52
2019-01-10T18:02:14.771Z,97024.93
2019-01-10T18:05:00.251Z,97037.19
2019-01-10T18:07:32.779Z,97044.64
2019-01-10T18:10:13.109Z,97037.41
2019-01-10T18:13:06.172Z,97045.48
2019-01-10T18:15:45.112Z,97049.97
2019-01-10T18:18:26.921Z,97053.54
2019-01-10T18:21:15.260Z,97049.27
2019-01-10T18:23:47.585Z,97051.72
2019-01-10T18:26:28.201Z,97057.33
2019-01-10T18:29:09.874Z,97067.33
2019-01-10T18:31:58.667Z,97066.50
2019-01-10T18:34:38.774Z,97069.16
2019-01-10T18:37:15.052Z,97081.64
2019-01-10T18:39:46.450Z,97083.39
2019-01-10T18:42:36.050Z,97081.86
2019-01-10T18:45:28.938Z,97084.92
2019-01-10T18:48:02.925Z,97070.19
2019-01-10T18:50:37.361Z,97076.22
2019-01-10T18:53:30.232Z,97082.77
2019-01-10T18:56:05.923Z,97074.97
2019-01-10T18:58:38.420Z,97079.11
2019-01-10T19:01:15.845Z,97087.56
2019-01-10T19:03:55.240Z,97080.20
2019-01-10T19:06:34.294Z,97069.65
2019-01-10T19:09:07.796Z,97084.44
2019-01-10T19:11:46.406Z,97075.64
2019-01-10T19:14:25.243Z,97084.42
2019-01-10T19:17:00.554Z,97087.98
2019-01-10T19:19:32.922Z,97090.78
2019-01-10T19:22:16.006Z,97091.19
2019-01-10T19:25:04.463Z,97089.41
2019-01-10T19:27:50.395Z,97093.05
2019-01-10T19:30:33.332Z,97092.53
2019-01-10T19:33:14.426Z,97107.12
2019-01-10T19:35:56.095Z,97109.14
2019-01-10T19:38:37.235Z,97107.88
2019-01-10T19:41:21.780Z,97114.28
2019-01-10T19:47:05.282Z,97119.81
2019-01-10T19:49:38.198Z,97125.94
2019-01-10T19:52:22.729Z,97123.72
2019-01-10T19:54:57.088Z,97116.33
2019-01-10T19:57:33.061Z,97115.80
2019-01-10T20:00:20.908Z,97120.34
2019-01-10T20:02:57.528Z,97121.57
2019-01-10T20:05:31.628Z,97120.08
2019-01-10T20:08:02.287Z,97123.92
2019-01-10T20:10:32.232Z,97127.50
2019-01-10T20:13:02.234Z,97135.46
2019-01-10T20:15:32.393Z,97133.03
2019-01-10T20:18:02.303Z,97132.47
2019-01-10T20:20:36.531Z,97129.31
2019-01-10T20:23:07.259Z,97128.34
2019-01-10T20:25:37.897Z,97129.05
2019-01-10T20:28:07.731Z,97133.89
2019-01-10T20:30:37.762Z,97131.65
2019-01-10T20:33:07.691Z,97134.55
2019-01-10T20:35:37.667Z,97137.15
2019-01-10T20:38:07.648Z,97139.35
2019-01-10T20:40:37.703Z,97144.84
2019-01-10T20:43:07.481Z,97150.71
2019-01-10T20:45:38.994Z,97150.45
2019-01-10T20:48:09.065Z,97145.47
2019-01-10T20:50:38.846Z,97150.19
2019-01-10T20:53:08.942Z,97139.55
2019-01-10T20:55:40.197Z,97141.61
2019-01-10T20:58:10.374Z,97142.08
2019-01-10T21:00:40.207Z,97139.05
2019-01-10T21:03:16.379Z,97139.05
2019-01-10T21:05:49.979Z,97139.55
2019-01-10T21:08:21.053Z,97147.19
2019-01-10T21:10:51.075Z,97144.54
2019-01-10T21:13:20.927Z,97151.89
2019-01-10T21:15:52.531Z,97150.33
2019-01-10T21:18:28.527Z,97154.67
2019-01-10T21:20:54.050Z,97153.11
2019-01-10T21:23:23.961Z,97157.51
2019-01-10T21:25:54.106Z,97160.27
2019-01-10T21:28:24.520Z,97161.98
2019-01-10T21:30:54.424Z,97166.78
2019-01-10T21:33:24.691Z,97169.22
2019-01-10T21:35:54.671Z,97165.80
2019-01-10T21:38:24.479Z,97170.03
2019-01-10T21:40:54.342Z,97174.80
2019-01-10T21:43:24.226Z,97174.97
2019-01-10T21:45:54.032Z,97171.12
2019-01-10T21:48:24.165Z,97176.44
2019-01-10T21:50:54.266Z,97171.64
2019-01-10T21:53:24.036Z,97170.53
2019-01-10T21:55:54.083Z,97176.29
2019-01-10T21:58:24.200Z,97179.01
2019-01-10T22:00:54.090Z,97177.12
2019-01-10T22:03:27.348Z,97178.53
2019-01-10T22:05:57.265Z,97178.45
2019-01-10T22:08:27.363Z,97188.50
2019-01-10T22:10:59.317Z,97180.53
2019-01-10T22:13:29.165Z,97190.47
2019-01-10T22:15:59.452Z,97183.66
2019-01-10T22:18:29.218Z,97180.42
2019-01-10T22:20:59.263Z,97181.44
2019-01-10T22:23:29.234Z,97188.84
2019-01-10T22:25:59.079Z,97189.97
2019-01-10T22:28:30.493Z,97184.08
2019-01-10T22:31:00.425Z,97185.28
2019-01-10T22:33:31.410Z,97188.65
2019-01-10T22:36:03.170Z,97190.20
2019-01-10T22:38:33.104Z,97191.79
2019-01-10T22:41:02.928Z,97191.38
2019-01-10T22:43:32.817Z,97191.38
2019-01-10T22:46:02.748Z,97185.44
2019-01-10T22:48:32.659Z,97190.05
2019-01-10T22:51:06.811Z,97179.09
2019-01-10T22:53:36.720Z,97172.25
2019-01-10T22:56:06.755Z,97180.87
2019-01-10T22:58:36.995Z,97176.06
2019-01-10T23:01:10.203Z,97185.70
2019-01-10T23:03:41.582Z,97188.64
2019-01-10T23:06:11.977Z,97185.77
2019-01-10T23:08:45.588Z,97194.20
2019-01-10T23:11:18.867Z,97194.50
2019-01-10T23:13:56.747Z,97190.34
2019-01-10T23:16:34.218Z,97190.34
2019-01-10T23:19:08.745Z,97191.22
2019-01-10T23:21:44.282Z,97190.30
2019-01-10T23:24:17.292Z,97194.06
2019-01-10T23:26:53.917Z,97184.76
2019-01-10T23:29:28.579Z,97188.42
2019-01-10T23:32:00.060Z,97194.47
2019-01-10T23:34:31.163Z,97186.05
2019-01-10T23:39:45.962Z,97191.48
2019-01-10T23:42:15.753Z,97191.67
2019-01-10T23:44:45.629Z,97199.23
2019-01-10T23:47:18.409Z,97192.96
2019-01-10T23:49:49.310Z,97194.52
2019-01-10T23:52:22.879Z,97185.86
2019-01-10T23:54:52.663Z,97184.91
2019-01-10T23:57:22.704Z,97184.91
2019-01-10T23:59:54.298Z,97189.66
